Time;durP1;ratioP1;P1;durP2;ratioP2;P2;SDS_P1;SDS_P2;PMS_P1;PMS_P2;Temp;Humidity;BMP_temperature;BMP_pressure;BME280_temperature;BME280_humidity;BME280_pressure;Samples;Min_cycle;Max_cycle;Signal;HPM_P1;HPM_P2
2022/07/31 00:01:12;;;;;;;27.17;16.95;;;;;;;;;;10480714;28;20106;-74
2022/07/31 00:06:12;;;;;;;28.58;19.70;;;;;;;;;;10476111;28;20054;-75
2022/07/31 00:11:12;;;;;;;34.45;22.75;;;;;;;;;;10491729;28;20075;-74
2022/07/31 00:16:13;;;;;;;34.10;22.67;;;;;;;;;;10457115;28;20032;-75
2022/07/31 00:21:14;;;;;;;35.85;22.08;;;;;;;;;;10474369;28;20024;-74
2022/07/31 00:26:14;;;;;;;37.13;22.83;;;;;;;;;;10455601;28;20449;-75
2022/07/31 00:31:14;;;;;;;37.10;23.50;;;;;;;;;;10473001;28;20446;-74
2022/07/31 00:36:14;;;;;;;35.17;22.13;;;;;;;;;;10487295;28;20036;-76
2022/07/31 00:41:15;;;;;;;25.33;18.10;;;;;;;;;;10455101;28;20108;-74
2022/07/31 00:46:15;;;;;;;31.05;20.40;;;;;;;;;;10456152;28;20029;-74
2022/07/31 00:51:15;;;;;;;29.80;18.67;;;;;;;;;;10455693;28;20471;-74
2022/07/31 00:56:15;;;;;;;35.65;20.20;;;;;;;;;;10454683;28;20066;-74
2022/07/31 01:01:16;;;;;;;28.55;18.55;;;;;;;;;;10472236;28;20013;-75
2022/07/31 01:06:16;;;;;;;29.90;18.80;;;;;;;;;;10455456;28;20055;-75
2022/07/31 01:11:21;;;;;;;26.10;18.23;;;;;;;;;;10471357;28;20072;-74
2022/07/31 01:16:23;;;;;;;31.45;19.75;;;;;;;;;;10475905;28;20461;-74
2022/07/31 01:21:32;;;;;;;34.92;19.63;;;;;;;;;;10453649;28;20029;-74
2022/07/31 01:26:48;;;;;;;27.70;18.05;;;;;;;;;;10470673;28;20049;-74
2022/07/31 01:31:51;;;;;;;27.25;17.15;;;;;;;;;;10470688;28;20446;-75
2022/07/31 01:37:02;;;;;;;29.13;17.83;;;;;;;;;;10454220;28;20100;-76
2022/07/31 01:42:05;;;;;;;27.00;17.23;;;;;;;;;;10454039;28;20067;-74
2022/07/31 01:47:06;;;;;;;24.45;17.08;;;;;;;;;;10461348;28;20020;-74
2022/07/31 01:52:07;;;;;;;28.85;18.67;;;;;;;;;;10474869;28;20402;-75
2022/07/31 01:57:08;;;;;;;27.58;16.40;;;;;;;;;;10466635;28;20075;-74
2022/07/31 02:02:08;;;;;;;24.73;17.05;;;;;;;;;;10473679;28;20116;-74
2022/07/31 02:07:09;;;;;;;30.23;17.67;;;;;;;;;;10477124;28;20542;-74
2022/07/31 02:12:11;;;;;;;28.30;17.30;;;;;;;;;;10452706;28;20044;-74
2022/07/31 02:17:12;;;;;;;29.40;17.38;;;;;;;;;;10451864;28;20078;-74
2022/07/31 02:22:12;;;;;;;23.83;17.33;;;;;;;;;;10451121;28;20463;-75
2022/07/31 02:27:13;;;;;;;25.42;16.63;;;;;;;;;;10452255;28;20028;-75
2022/07/31 02:32:13;;;;;;;26.92;17.35;;;;;;;;;;10451125;28;20557;-74
2022/07/31 02:37:14;;;;;;;32.53;19.17;;;;;;;;;;10471764;28;20092;-75
2022/07/31 02:42:16;;;;;;;27.25;18.20;;;;;;;;;;10451421;28;20056;-74
2022/07/31 02:47:16;;;;;;;28.35;17.95;;;;;;;;;;10470954;28;20491;-75
2022/07/31 02:52:16;;;;;;;25.13;16.40;;;;;;;;;;10469004;28;20017;-74
2022/07/31 02:57:17;;;;;;;28.00;17.17;;;;;;;;;;10451851;28;20413;-74
2022/07/31 03:02:17;;;;;;;28.42;16.15;;;;;;;;;;10451565;28;20103;-74
2022/07/31 03:07:17;;;;;;;27.30;16.43;;;;;;;;;;10451688;28;20025;-75
2022/07/31 03:12:18;;;;;;;33.95;15.40;;;;;;;;;;10468777;28;20030;-74
2022/07/31 03:17:18;;;;;;;29.80;16.97;;;;;;;;;;10464055;28;20550;-74
2022/07/31 03:22:18;;;;;;;36.00;21.02;;;;;;;;;;10470788;28;20059;-75
2022/07/31 03:27:19;;;;;;;37.23;18.37;;;;;;;;;;10450507;28;20107;-75
2022/07/31 03:32:19;;;;;;;25.88;16.05;;;;;;;;;;10467335;28;20028;-74
2022/07/31 03:37:19;;;;;;;26.48;17.00;;;;;;;;;;10479057;28;20013;-74
2022/07/31 03:42:20;;;;;;;29.77;16.38;;;;;;;;;;10459142;28;20058;-74
2022/07/31 03:47:20;;;;;;;31.27;16.83;;;;;;;;;;10457326;28;20410;-74
2022/07/31 03:52:21;;;;;;;26.75;17.92;;;;;;;;;;10476055;28;20051;-74
2022/07/31 03:57:22;;;;;;;29.58;16.73;;;;;;;;;;10458312;28;20024;-74
2022/07/31 04:02:26;;;;;;;25.73;17.35;;;;;;;;;;10456596;28;20379;-74
2022/07/31 04:07:27;;;;;;;23.67;16.23;;;;;;;;;;10456706;28;20020;-74
2022/07/31 04:12:27;;;;;;;23.30;15.80;;;;;;;;;;10473598;28;20029;-74
2022/07/31 04:17:27;;;;;;;25.17;15.37;;;;;;;;;;10477770;28;20183;-75
2022/07/31 04:22:27;;;;;;;23.52;15.07;;;;;;;;;;10471335;28;20491;-74
2022/07/31 04:27:28;;;;;;;27.25;15.25;;;;;;;;;;10455999;28;20522;-74
2022/07/31 04:32:28;;;;;;;28.73;17.10;;;;;;;;;;10484992;28;20459;-74
2022/07/31 04:37:28;;;;;;;26.35;15.27;;;;;;;;;;10473254;28;20172;-75
2022/07/31 04:42:28;;;;;;;24.85;15.35;;;;;;;;;;10474604;28;20017;-74
2022/07/31 04:47:29;;;;;;;27.63;14.90;;;;;;;;;;10479373;28;20029;-74
2022/07/31 04:52:29;;;;;;;26.25;16.67;;;;;;;;;;10475748;28;20052;-74
2022/07/31 04:57:29;;;;;;;22.08;13.32;;;;;;;;;;10472536;28;20009;-74
2022/07/31 05:02:29;;;;;;;25.17;13.48;;;;;;;;;;10475429;28;20112;-75
2022/07/31 05:07:30;;;;;;;17.77;12.65;;;;;;;;;;10471713;28;20028;-74
2022/07/31 05:12:30;;;;;;;17.02;12.52;;;;;;;;;;10482070;28;20085;-74
2022/07/31 05:17:30;;;;;;;17.57;12.00;;;;;;;;;;10472617;28;20028;-74
2022/07/31 05:22:30;;;;;;;14.68;11.50;;;;;;;;;;10477520;28;20410;-74
2022/07/31 05:27:31;;;;;;;17.35;11.55;;;;;;;;;;10454974;28;20028;-74
2022/07/31 05:32:32;;;;;;;17.95;11.05;;;;;;;;;;10478063;28;20021;-74
2022/07/31 05:37:32;;;;;;;12.23;9.45;;;;;;;;;;10453340;28;20013;-75
2022/07/31 05:42:32;;;;;;;12.68;9.02;;;;;;;;;;10454105;28;20115;-75
2022/07/31 05:47:33;;;;;;;13.48;9.02;;;;;;;;;;10480232;28;20028;-76
2022/07/31 05:52:33;;;;;;;12.55;8.02;;;;;;;;;;10470382;28;20029;-74
2022/07/31 05:57:33;;;;;;;12.65;9.18;;;;;;;;;;10452003;28;20028;-75
2022/07/31 06:02:34;;;;;;;12.07;7.57;;;;;;;;;;10478439;28;20099;-74
2022/07/31 06:07:34;;;;;;;13.15;8.15;;;;;;;;;;10457314;28;20033;-75
2022/07/31 06:12:34;;;;;;;13.55;7.53;;;;;;;;;;10469176;28;20406;-75
2022/07/31 06:17:36;;;;;;;12.13;7.43;;;;;;;;;;10475426;28;20016;-75
2022/07/31 06:22:38;;;;;;;11.07;7.72;;;;;;;;;;10467768;28;20024;-76
2022/07/31 06:27:38;;;;;;;11.57;8.02;;;;;;;;;;10468312;28;20025;-75
2022/07/31 06:32:39;;;;;;;11.88;7.25;;;;;;;;;;10452419;28;20028;-76
2022/07/31 06:37:39;;;;;;;10.35;6.72;;;;;;;;;;10452254;28;20020;-75
2022/07/31 06:42:39;;;;;;;8.63;6.53;;;;;;;;;;10476668;28;20039;-75
2022/07/31 06:47:40;;;;;;;11.53;7.43;;;;;;;;;;10455910;28;20501;-75
2022/07/31 06:52:40;;;;;;;11.77;8.10;;;;;;;;;;10468256;28;20375;-76
2022/07/31 06:57:41;;;;;;;11.33;7.47;;;;;;;;;;10468564;28;20021;-76
2022/07/31 07:02:41;;;;;;;11.48;7.75;;;;;;;;;;10451799;28;20479;-75
2022/07/31 07:07:42;;;;;;;15.15;9.82;;;;;;;;;;10467402;28;20498;-75
2022/07/31 07:12:42;;;;;;;18.42;9.88;;;;;;;;;;10454873;28;20044;-74
2022/07/31 07:17:42;;;;;;;15.57;9.93;;;;;;;;;;10476690;28;20020;-77
2022/07/31 07:22:42;;;;;;;15.27;10.13;;;;;;;;;;10477025;28;20035;-77
2022/07/31 07:27:43;;;;;;;19.80;10.40;;;;;;;;;;10478581;28;20028;-75
2022/07/31 07:32:43;;;;;;;16.77;11.03;;;;;;;;;;10484244;28;20563;-76
2022/07/31 07:37:43;;;;;;;15.93;8.90;;;;;;;;;;10482256;28;20025;-75
2022/07/31 07:42:44;;;;;;;14.55;9.00;;;;;;;;;;10475113;28;20116;-75
2022/07/31 07:47:44;;;;;;;15.73;8.93;;;;;;;;;;10489917;28;20013;-75
2022/07/31 07:52:45;;;;;;;13.45;9.75;;;;;;;;;;10474915;28;20509;-75
2022/07/31 07:57:45;;;;;;;13.30;8.67;;;;;;;;;;10472091;28;20015;-75
2022/07/31 08:02:45;;;;;;;13.57;7.85;;;;;;;;;;10474037;28;20503;-75
2022/07/31 08:07:46;;;;;;;10.43;8.07;;;;;;;;;;10483381;28;20124;-73
2022/07/31 08:12:46;;;;;;;10.63;7.67;;;;;;;;;;10457594;28;20079;-76
2022/07/31 08:17:46;;;;;;;10.93;7.20;;;;;;;;;;10455857;28;20028;-74
2022/07/31 08:22:46;;;;;;;11.40;7.85;;;;;;;;;;10492902;28;20393;-74
2022/07/31 08:27:48;;;;;;;12.02;7.13;;;;;;;;;;10466216;28;20052;-75
2022/07/31 08:32:48;;;;;;;11.10;7.50;;;;;;;;;;10473004;28;20021;-75
2022/07/31 08:37:48;;;;;;;12.13;6.88;;;;;;;;;;10473312;28;20108;-76
2022/07/31 08:42:49;;;;;;;10.10;6.78;;;;;;;;;;10455417;28;20032;-75
2022/07/31 08:47:49;;;;;;;6.67;5.27;;;;;;;;;;10456093;28;20047;-75
2022/07/31 08:52:53;;;;;;;7.38;5.60;;;;;;;;;;10472896;28;20013;-74
2022/07/31 08:57:53;;;;;;;8.82;5.82;;;;;;;;;;10454750;28;20045;-74
2022/07/31 09:02:54;;;;;;;7.23;5.57;;;;;;;;;;10475581;28;20063;-74
2022/07/31 09:07:54;;;;;;;7.17;5.70;;;;;;;;;;10453557;28;20037;-74
2022/07/31 09:12:55;;;;;;;7.20;5.57;;;;;;;;;;10475220;28;20021;-74
2022/07/31 09:17:56;;;;;;;11.50;6.45;;;;;;;;;;10481212;28;20488;-75
2022/07/31 09:23:06;;;;;;;12.23;7.40;;;;;;;;;;10477913;28;20095;-74
2022/07/31 09:28:06;;;;;;;10.77;8.02;;;;;;;;;;10471383;28;20112;-75
2022/07/31 09:33:17;;;;;;;10.50;7.27;;;;;;;;;;10471386;28;20116;-75
2022/07/31 09:38:17;;;;;;;11.95;7.18;;;;;;;;;;10435496;28;20096;-74
2022/07/31 09:43:18;;;;;;;14.32;8.77;;;;;;;;;;10473782;28;20418;-74
2022/07/31 09:48:18;;;;;;;13.55;9.77;;;;;;;;;;10453667;28;20057;-73
2022/07/31 09:53:19;;;;;;;14.60;10.20;;;;;;;;;;10452217;28;20067;-74
2022/07/31 09:58:19;;;;;;;15.90;11.20;;;;;;;;;;10452025;28;20087;-75
2022/07/31 10:03:21;;;;;;;14.65;10.15;;;;;;;;;;10453450;28;20578;-74
2022/07/31 10:08:22;;;;;;;13.02;10.02;;;;;;;;;;10451499;28;20041;-75
2022/07/31 10:13:22;;;;;;;13.02;10.25;;;;;;;;;;10452383;28;20033;-75
2022/07/31 10:18:23;;;;;;;14.95;11.00;;;;;;;;;;10472509;28;20479;-74
2022/07/31 10:23:27;;;;;;;15.80;11.52;;;;;;;;;;10452622;28;20169;-74
2022/07/31 10:28:30;;;;;;;17.88;11.10;;;;;;;;;;10434598;28;20029;-74
2022/07/31 10:33:31;;;;;;;16.25;10.32;;;;;;;;;;10456745;28;20479;-75
2022/07/31 10:38:31;;;;;;;11.77;8.68;;;;;;;;;;10463132;28;20188;-74
2022/07/31 10:43:44;;;;;;;9.32;7.55;;;;;;;;;;10452102;28;20032;-74
2022/07/31 10:48:52;;;;;;;11.00;8.43;;;;;;;;;;10468485;28;20455;-74
2022/07/31 10:54:02;;;;;;;10.52;8.38;;;;;;;;;;10469564;28;20490;-74
2022/07/31 10:59:02;;;;;;;12.20;8.32;;;;;;;;;;10489543;28;20040;-74
2022/07/31 11:04:03;;;;;;;7.78;6.70;;;;;;;;;;10433499;28;20387;-74
2022/07/31 11:09:04;;;;;;;9.00;6.78;;;;;;;;;;10451039;28;20510;-74
2022/07/31 11:14:04;;;;;;;8.57;7.60;;;;;;;;;;10483277;28;20036;-74
2022/07/31 11:19:05;;;;;;;9.10;7.80;;;;;;;;;;10449890;28;20025;-73
2022/07/31 11:24:14;;;;;;;9.32;7.38;;;;;;;;;;10475724;28;20069;-74
2022/07/31 11:29:24;;;;;;;10.27;8.02;;;;;;;;;;10449610;28;20014;-75
2022/07/31 11:34:25;;;;;;;13.57;8.55;;;;;;;;;;10449513;28;20114;-74
2022/07/31 11:39:27;;;;;;;10.18;8.43;;;;;;;;;;10449486;28;20508;-74
2022/07/31 11:44:27;;;;;;;12.40;9.05;;;;;;;;;;10470337;28;20112;-74
2022/07/31 11:49:31;;;;;;;10.55;8.73;;;;;;;;;;10450363;28;20163;-74
2022/07/31 11:54:32;;;;;;;13.18;9.75;;;;;;;;;;10469372;28;20482;-74
2022/07/31 11:59:33;;;;;;;12.13;8.85;;;;;;;;;;10469460;28;20029;-73
2022/07/31 12:04:37;;;;;;;13.93;9.27;;;;;;;;;;10457967;28;20100;-74
2022/07/31 12:09:37;;;;;;;15.55;9.55;;;;;;;;;;10472197;28;20045;-80
2022/07/31 12:14:38;;;;;;;12.98;9.80;;;;;;;;;;10474479;28;20552;-74
2022/07/31 12:19:38;;;;;;;13.23;8.70;;;;;;;;;;10472754;28;20034;-74
2022/07/31 12:24:39;;;;;;;11.73;8.20;;;;;;;;;;10488876;28;20025;-74
2022/07/31 12:29:39;;;;;;;15.60;8.93;;;;;;;;;;10472688;28;20141;-74
2022/07/31 12:34:40;;;;;;;13.00;8.05;;;;;;;;;;10470845;28;20021;-74
2022/07/31 12:39:46;;;;;;;11.10;7.88;;;;;;;;;;10453936;28;20090;-74
2022/07/31 12:44:47;;;;;;;10.20;8.52;;;;;;;;;;10479720;28;20025;-74
2022/07/31 12:49:48;;;;;;;12.45;8.73;;;;;;;;;;10472037;28;20025;-74
2022/07/31 12:54:48;;;;;;;10.40;8.35;;;;;;;;;;10481435;28;20124;-74
2022/07/31 12:59:49;;;;;;;8.70;7.22;;;;;;;;;;10470785;28;20028;-74
2022/07/31 13:04:49;;;;;;;9.50;6.93;;;;;;;;;;10472248;28;20052;-74
2022/07/31 13:09:49;;;;;;;8.48;7.15;;;;;;;;;;10480133;28;20067;-75
2022/07/31 13:14:50;;;;;;;9.93;7.47;;;;;;;;;;10459190;28;20021;-74
2022/07/31 13:19:50;;;;;;;10.73;7.53;;;;;;;;;;10455719;28;20028;-75
2022/07/31 13:24:50;;;;;;;8.25;7.10;;;;;;;;;;10480030;28;20028;-75
2022/07/31 13:29:50;;;;;;;9.30;7.00;;;;;;;;;;10471204;28;20080;-74
2022/07/31 13:34:51;;;;;;;9.60;7.72;;;;;;;;;;10453344;28;20025;-75
2022/07/31 13:39:52;;;;;;;10.68;8.50;;;;;;;;;;10486687;28;20466;-75
2022/07/31 13:44:52;;;;;;;9.48;7.80;;;;;;;;;;10454233;28;20028;-74
2022/07/31 13:49:52;;;;;;;11.85;7.55;;;;;;;;;;10476202;28;20021;-74
2022/07/31 13:54:52;;;;;;;8.48;7.55;;;;;;;;;;10453286;28;20052;-74
2022/07/31 13:59:53;;;;;;;9.77;7.57;;;;;;;;;;10477907;28;20031;-74
2022/07/31 14:04:53;;;;;;;11.02;7.25;;;;;;;;;;10453222;28;20092;-74
2022/07/31 14:09:53;;;;;;;9.90;8.38;;;;;;;;;;10452711;28;20036;-73
2022/07/31 14:14:54;;;;;;;14.57;8.20;;;;;;;;;;10452461;28;20029;-74
2022/07/31 14:19:54;;;;;;;9.73;7.53;;;;;;;;;;10469109;28;20132;-74
2022/07/31 14:24:54;;;;;;;9.52;7.38;;;;;;;;;;10470485;28;20510;-74
2022/07/31 14:29:54;;;;;;;7.57;5.75;;;;;;;;;;10450802;28;20028;-73
2022/07/31 14:34:55;;;;;;;10.30;6.57;;;;;;;;;;10469581;28;20112;-74
2022/07/31 14:39:55;;;;;;;8.27;6.50;;;;;;;;;;10468572;28;20025;-74
2022/07/31 14:44:55;;;;;;;8.53;7.03;;;;;;;;;;10471071;28;20154;-76
2022/07/31 14:49:56;;;;;;;8.07;7.03;;;;;;;;;;10470548;28;20016;-75
2022/07/31 14:54:57;;;;;;;7.90;7.10;;;;;;;;;;10451607;28;20035;-74
2022/07/31 14:59:57;;;;;;;13.00;9.30;;;;;;;;;;10467542;28;20102;-74
2022/07/31 15:04:58;;;;;;;9.87;7.73;;;;;;;;;;10467544;28;20104;-74
2022/07/31 15:09:58;;;;;;;8.05;7.22;;;;;;;;;;10451525;28;20144;-74
2022/07/31 15:14:58;;;;;;;9.48;6.95;;;;;;;;;;10481930;28;20486;-75
2022/07/31 15:19:58;;;;;;;8.07;6.97;;;;;;;;;;10473585;28;20032;-75
2022/07/31 15:24:59;;;;;;;8.20;7.40;;;;;;;;;;10449676;28;20021;-74
2022/07/31 15:29:59;;;;;;;9.50;8.50;;;;;;;;;;10466984;28;20124;-74
2022/07/31 15:34:59;;;;;;;14.52;7.88;;;;;;;;;;10483389;28;20403;-74
2022/07/31 15:40:01;;;;;;;9.32;8.32;;;;;;;;;;10458812;28;20550;-74
2022/07/31 15:45:01;;;;;;;10.98;7.95;;;;;;;;;;10474140;28;20071;-74
2022/07/31 15:50:01;;;;;;;10.77;8.00;;;;;;;;;;10476982;28;20020;-75
2022/07/31 15:55:02;;;;;;;10.30;8.13;;;;;;;;;;10474848;28;20102;-75
2022/07/31 16:00:04;;;;;;;8.75;7.43;;;;;;;;;;10476957;28;20415;-74
2022/07/31 16:05:05;;;;;;;7.75;6.95;;;;;;;;;;10474032;28;20411;-75
2022/07/31 16:10:06;;;;;;;8.02;7.18;;;;;;;;;;10475788;28;20048;-74
2022/07/31 16:15:06;;;;;;;8.52;7.63;;;;;;;;;;10481970;28;20078;-74
2022/07/31 16:20:08;;;;;;;9.95;7.47;;;;;;;;;;10456294;28;20028;-74
2022/07/31 16:25:09;;;;;;;10.35;8.07;;;;;;;;;;10477113;28;20032;-75
2022/07/31 16:30:12;;;;;;;9.65;8.30;;;;;;;;;;10473735;28;20062;-74
2022/07/31 16:35:12;;;;;;;10.23;8.65;;;;;;;;;;10476061;28;20009;-74
2022/07/31 16:40:12;;;;;;;9.18;8.10;;;;;;;;;;10485149;28;20020;-75
2022/07/31 16:45:13;;;;;;;9.23;7.47;;;;;;;;;;10492167;28;20426;-75
2022/07/31 16:50:13;;;;;;;12.80;7.68;;;;;;;;;;10461439;28;20021;-75
2022/07/31 16:55:13;;;;;;;9.20;6.95;;;;;;;;;;10456315;28;20025;-75
2022/07/31 17:00:13;;;;;;;9.50;7.25;;;;;;;;;;10455832;28;20433;-75
2022/07/31 17:05:14;;;;;;;10.60;8.20;;;;;;;;;;10472035;28;20023;-74
2022/07/31 17:10:15;;;;;;;10.55;8.43;;;;;;;;;;10469343;28;20372;-75
2022/07/31 17:15:15;;;;;;;10.52;8.15;;;;;;;;;;10468831;28;20160;-74
2022/07/31 17:20:22;;;;;;;8.18;7.38;;;;;;;;;;10454280;28;20062;-74
2022/07/31 17:25:22;;;;;;;7.22;6.53;;;;;;;;;;10471613;28;20036;-74
2022/07/31 17:30:22;;;;;;;7.83;6.83;;;;;;;;;;10453334;28;20021;-74
2022/07/31 17:35:23;;;;;;;8.40;7.07;;;;;;;;;;10471535;28;20542;-74
2022/07/31 17:40:23;;;;;;;12.52;7.55;;;;;;;;;;10474402;28;20083;-75
2022/07/31 17:45:25;;;;;;;9.88;8.20;;;;;;;;;;10453981;28;20033;-74
2022/07/31 17:50:25;;;;;;;10.80;8.02;;;;;;;;;;10452468;28;20025;-74
2022/07/31 17:55:26;;;;;;;17.50;7.60;;;;;;;;;;10453256;28;20091;-75
2022/07/31 18:00:26;;;;;;;9.48;7.93;;;;;;;;;;10452011;28;20072;-74
2022/07/31 18:05:26;;;;;;;9.65;7.10;;;;;;;;;;10453391;28;20104;-75
2022/07/31 18:10:28;;;;;;;9.77;7.88;;;;;;;;;;10485740;28;20499;-74
2022/07/31 18:15:28;;;;;;;10.70;7.83;;;;;;;;;;10457012;28;20053;-74
2022/07/31 18:20:28;;;;;;;9.80;8.18;;;;;;;;;;10451640;28;20350;-75
2022/07/31 18:25:28;;;;;;;9.73;7.30;;;;;;;;;;10468727;28;20032;-75
2022/07/31 18:30:29;;;;;;;9.10;7.63;;;;;;;;;;10452570;28;20036;-75
2022/07/31 18:35:29;;;;;;;8.87;6.70;;;;;;;;;;10452513;28;20099;-75
2022/07/31 18:40:31;;;;;;;10.85;7.30;;;;;;;;;;10468460;28;20556;-75
2022/07/31 18:45:31;;;;;;;7.40;6.47;;;;;;;;;;10468813;28;20025;-74
2022/07/31 18:50:31;;;;;;;9.80;8.33;;;;;;;;;;10467647;28;20111;-75
2022/07/31 18:55:32;;;;;;;10.30;7.22;;;;;;;;;;10451925;28;20317;-76
2022/07/31 19:00:32;;;;;;;6.97;6.30;;;;;;;;;;10451787;28;20028;-76
2022/07/31 19:05:33;;;;;;;10.53;7.57;;;;;;;;;;10451640;28;20411;-76
2022/07/31 19:10:33;;;;;;;11.18;7.00;;;;;;;;;;10474444;28;20511;-73
2022/07/31 19:15:35;;;;;;;11.50;6.55;;;;;;;;;;10479985;28;20079;-74
2022/07/31 19:20:35;;;;;;;7.57;6.82;;;;;;;;;;10476632;28;20479;-75
2022/07/31 19:25:35;;;;;;;11.65;7.45;;;;;;;;;;10459103;28;20025;-74
2022/07/31 19:30:37;;;;;;;9.75;6.10;;;;;;;;;;10486278;28;20020;-75
2022/07/31 19:35:37;;;;;;;6.65;6.05;;;;;;;;;;10461850;28;20021;-75
2022/07/31 19:40:38;;;;;;;7.37;6.10;;;;;;;;;;10481091;28;20021;-75
2022/07/31 19:45:38;;;;;;;6.23;5.63;;;;;;;;;;10488207;28;20043;-75
2022/07/31 19:50:38;;;;;;;6.50;5.90;;;;;;;;;;10457491;28;20075;-74
2022/07/31 19:55:39;;;;;;;6.82;6.00;;;;;;;;;;10458757;28;20013;-76
2022/07/31 20:00:40;;;;;;;8.32;6.22;;;;;;;;;;10457233;28;20022;-75
2022/07/31 20:05:40;;;;;;;7.60;6.70;;;;;;;;;;10489236;28;20143;-76
2022/07/31 20:10:40;;;;;;;7.22;6.53;;;;;;;;;;10457928;28;20045;-75
2022/07/31 20:15:40;;;;;;;8.35;7.22;;;;;;;;;;10477266;28;20101;-75
2022/07/31 20:20:41;;;;;;;8.02;6.60;;;;;;;;;;10466301;28;20450;-75
2022/07/31 20:25:41;;;;;;;12.03;7.10;;;;;;;;;;10459261;28;20029;-74
2022/07/31 20:30:41;;;;;;;10.40;6.95;;;;;;;;;;10457034;28;20036;-74
2022/07/31 20:35:42;;;;;;;7.57;6.75;;;;;;;;;;10473876;28;20036;-74
2022/07/31 20:40:42;;;;;;;9.33;6.53;;;;;;;;;;10481760;28;20049;-74
2022/07/31 20:45:45;;;;;;;8.88;7.13;;;;;;;;;;10484921;28;20029;-78
2022/07/31 20:50:45;;;;;;;9.55;7.15;;;;;;;;;;10482777;28;20033;-76
2022/07/31 20:55:48;;;;;;;9.15;6.55;;;;;;;;;;10454669;28;20025;-74
2022/07/31 21:00:48;;;;;;;8.27;7.25;;;;;;;;;;10456182;28;20032;-74
2022/07/31 21:05:49;;;;;;;10.23;6.55;;;;;;;;;;10454508;28;20025;-74
2022/07/31 21:10:49;;;;;;;11.07;6.57;;;;;;;;;;10454105;28;20136;-74
2022/07/31 21:15:50;;;;;;;7.45;6.70;;;;;;;;;;10477978;28;20422;-74
2022/07/31 21:20:50;;;;;;;7.15;6.55;;;;;;;;;;10472168;28;20053;-74
2022/07/31 21:25:51;;;;;;;7.28;5.63;;;;;;;;;;10471116;28;20025;-74
2022/07/31 21:30:54;;;;;;;11.77;6.30;;;;;;;;;;10454639;28;20027;-75
2022/07/31 21:35:54;;;;;;;8.82;5.85;;;;;;;;;;10470546;28;20493;-74
2022/07/31 21:40:55;;;;;;;11.30;6.10;;;;;;;;;;10482518;28;20056;-74
2022/07/31 21:45:55;;;;;;;6.83;4.97;;;;;;;;;;10474971;28;20632;-76
2022/07/31 21:50:56;;;;;;;6.63;5.88;;;;;;;;;;10478356;28;20444;-74
2022/07/31 21:55:57;;;;;;;6.37;4.77;;;;;;;;;;10455048;28;20028;-74
2022/07/31 22:00:57;;;;;;;5.47;4.80;;;;;;;;;;10476141;28;20513;-76
2022/07/31 22:11:16;;;;;;;9.32;4.60;;;;;;;;;;10452822;28;20463;-75
2022/07/31 22:16:16;;;;;;;9.57;5.15;;;;;;;;;;10451884;28;20021;-75
2022/07/31 22:21:18;;;;;;;7.03;4.72;;;;;;;;;;10453050;28;20025;-75
2022/07/31 22:26:18;;;;;;;7.60;4.70;;;;;;;;;;10474780;28;20063;-76
2022/07/31 22:31:19;;;;;;;7.00;4.50;;;;;;;;;;10477217;28;20450;-73
2022/07/31 22:36:20;;;;;;;7.00;4.37;;;;;;;;;;10452856;28;20108;-76
2022/07/31 22:41:20;;;;;;;6.45;4.95;;;;;;;;;;10451432;28;20017;-75
2022/07/31 22:46:20;;;;;;;6.95;6.25;;;;;;;;;;10478690;28;20099;-76
2022/07/31 22:51:20;;;;;;;6.22;5.43;;;;;;;;;;10480863;28;20021;-75
2022/07/31 22:56:21;;;;;;;7.65;5.68;;;;;;;;;;10471824;28;20076;-74
2022/07/31 23:01:21;;;;;;;6.35;5.03;;;;;;;;;;10469078;28;20488;-74
2022/07/31 23:06:21;;;;;;;5.03;4.50;;;;;;;;;;10451074;28;20017;-74
2022/07/31 23:11:23;;;;;;;8.85;4.57;;;;;;;;;;10470107;28;20049;-74
2022/07/31 23:16:23;;;;;;;6.22;3.72;;;;;;;;;;10468386;28;20079;-74
2022/07/31 23:21:23;;;;;;;4.60;3.65;;;;;;;;;;10462742;28;20033;-77
2022/07/31 23:26:24;;;;;;;5.83;3.70;;;;;;;;;;10468251;28;20057;-74
2022/07/31 23:31:25;;;;;;;3.42;3.13;;;;;;;;;;10467526;28;20025;-74
2022/07/31 23:36:25;;;;;;;3.35;2.83;;;;;;;;;;10468116;28;20025;-74
2022/07/31 23:46:44;;;;;;;4.38;2.80;;;;;;;;;;10451017;28;20020;-74
2022/07/31 23:51:44;;;;;;;5.32;2.72;;;;;;;;;;10450049;28;20033;-75
2022/07/31 23:56:45;;;;;;;5.10;2.60;;;;;;;;;;10480302;28;20508;-74
